sensor_id;sensor_type;location;lat;lon;timestamp;temperature;humidity
36752;DHT22;22718;49.494;7.036;2023-03-20T00:00:48;8.90;99.90
36752;DHT22;22718;49.494;7.036;2023-03-20T00:03:17;8.90;99.90
36752;DHT22;22718;49.494;7.036;2023-03-20T00:05:44;9.00;99.90
36752;DHT22;22718;49.494;7.036;2023-03-20T00:08:10;9.00;99.90
36752;DHT22;22718;49.494;7.036;2023-03-20T00:10:41;9.00;99.90
36752;DHT22;22718;49.494;7.036;2023-03-20T00:13:28;9.00;99.90
36752;DHT22;22718;49.494;7.036;2023-03-20T00:15:54;9.00;99.90
36752;DHT22;22718;49.494;7.036;2023-03-20T00:18:23;9.00;99.90
36752;DHT22;22718;49.494;7.036;2023-03-20T00:20:50;9.00;99.90
36752;DHT22;22718;49.494;7.036;2023-03-20T00:23:16;9.00;99.90
36752;DHT22;22718;49.494;7.036;2023-03-20T00:25:44;9.00;99.90
36752;DHT22;22718;49.494;7.036;2023-03-20T00:28:31;9.00;99.90
36752;DHT22;22718;49.494;7.036;2023-03-20T00:31:02;9.00;99.90
36752;DHT22;22718;49.494;7.036;2023-03-20T00:33:28;9.00;99.90
36752;DHT22;22718;49.494;7.036;2023-03-20T00:35:55;9.00;99.90
36752;DHT22;22718;49.494;7.036;2023-03-20T00:38:23;9.00;99.90
36752;DHT22;22718;49.494;7.036;2023-03-20T00:40:49;9.00;99.90
36752;DHT22;22718;49.494;7.036;2023-03-20T00:43:15;9.00;99.90
36752;DHT22;22718;49.494;7.036;2023-03-20T00:45:41;9.00;99.90
36752;DHT22;22718;49.494;7.036;2023-03-20T00:48:12;9.00;99.90
36752;DHT22;22718;49.494;7.036;2023-03-20T00:50:42;9.00;99.90
36752;DHT22;22718;49.494;7.036;2023-03-20T00:53:10;9.00;99.90
36752;DHT22;22718;49.494;7.036;2023-03-20T00:55:39;9.00;99.90
36752;DHT22;22718;49.494;7.036;2023-03-20T00:58:05;9.00;99.90
36752;DHT22;22718;49.494;7.036;2023-03-20T01:00:38;9.00;99.90
36752;DHT22;22718;49.494;7.036;2023-03-20T01:03:19;9.00;99.90
36752;DHT22;22718;49.494;7.036;2023-03-20T01:05:47;9.00;99.90
36752;DHT22;22718;49.494;7.036;2023-03-20T01:08:15;9.00;99.90
36752;DHT22;22718;49.494;7.036;2023-03-20T01:10:43;9.00;99.90
36752;DHT22;22718;49.494;7.036;2023-03-20T01:13:16;9.00;99.90
36752;DHT22;22718;49.494;7.036;2023-03-20T01:15:43;9.00;99.90
36752;DHT22;22718;49.494;7.036;2023-03-20T01:18:13;9.00;99.90
36752;DHT22;22718;49.494;7.036;2023-03-20T01:20:38;9.00;99.90
36752;DHT22;22718;49.494;7.036;2023-03-20T01:23:04;8.90;99.90
36752;DHT22;22718;49.494;7.036;2023-03-20T01:25:30;9.00;99.90
36752;DHT22;22718;49.494;7.036;2023-03-20T01:27:56;9.00;99.90
36752;DHT22;22718;49.494;7.036;2023-03-20T01:30:31;8.90;99.90
36752;DHT22;22718;49.494;7.036;2023-03-20T01:32:59;8.90;99.90
36752;DHT22;22718;49.494;7.036;2023-03-20T01:35:27;9.00;99.90
36752;DHT22;22718;49.494;7.036;2023-03-20T01:37:53;9.00;99.90
36752;DHT22;22718;49.494;7.036;2023-03-20T01:43:18;9.00;99.90
36752;DHT22;22718;49.494;7.036;2023-03-20T01:46:25;9.00;99.90
36752;DHT22;22718;49.494;7.036;2023-03-20T01:51:21;8.90;99.90
36752;DHT22;22718;49.494;7.036;2023-03-20T01:53:56;8.90;99.90
36752;DHT22;22718;49.494;7.036;2023-03-20T01:56:23;9.00;99.90
36752;DHT22;22718;49.494;7.036;2023-03-20T01:58:55;9.00;99.90
36752;DHT22;22718;49.494;7.036;2023-03-20T02:01:23;9.00;99.90
36752;DHT22;22718;49.494;7.036;2023-03-20T02:03:50;9.00;99.90
36752;DHT22;22718;49.494;7.036;2023-03-20T02:06:17;9.00;99.90
36752;DHT22;22718;49.494;7.036;2023-03-20T02:08:48;9.00;99.90
36752;DHT22;22718;49.494;7.036;2023-03-20T02:11:14;9.00;99.90
36752;DHT22;22718;49.494;7.036;2023-03-20T02:13:41;9.00;99.90
36752;DHT22;22718;49.494;7.036;2023-03-20T02:16:14;9.00;99.90
36752;DHT22;22718;49.494;7.036;2023-03-20T02:18:43;9.00;99.90
36752;DHT22;22718;49.494;7.036;2023-03-20T02:37:40;9.10;99.90
36752;DHT22;22718;49.494;7.036;2023-03-20T02:46:15;9.00;99.90
36752;DHT22;22718;49.494;7.036;2023-03-20T02:48:47;9.00;99.90
36752;DHT22;22718;49.494;7.036;2023-03-20T02:51:22;9.10;99.90
36752;DHT22;22718;49.494;7.036;2023-03-20T02:57:11;9.00;99.90
36752;DHT22;22718;49.494;7.036;2023-03-20T02:59:41;9.00;99.90
36752;DHT22;22718;49.494;7.036;2023-03-20T03:02:17;9.00;99.90
36752;DHT22;22718;49.494;7.036;2023-03-20T03:04:58;9.00;99.90
36752;DHT22;22718;49.494;7.036;2023-03-20T03:07:29;9.00;99.90
36752;DHT22;22718;49.494;7.036;2023-03-20T03:10:02;9.00;99.90
36752;DHT22;22718;49.494;7.036;2023-03-20T03:12:41;9.00;99.90
36752;DHT22;22718;49.494;7.036;2023-03-20T03:15:30;9.00;99.90
36752;DHT22;22718;49.494;7.036;2023-03-20T03:17:57;9.00;99.90
36752;DHT22;22718;49.494;7.036;2023-03-20T03:20:32;9.00;99.90
36752;DHT22;22718;49.494;7.036;2023-03-20T03:22:59;9.00;99.90
36752;DHT22;22718;49.494;7.036;2023-03-20T03:25:28;9.00;99.90
36752;DHT22;22718;49.494;7.036;2023-03-20T03:30:55;9.00;99.90
36752;DHT22;22718;49.494;7.036;2023-03-20T03:33:25;9.00;99.90
36752;DHT22;22718;49.494;7.036;2023-03-20T03:35:59;9.00;99.90
36752;DHT22;22718;49.494;7.036;2023-03-20T03:41:19;9.00;99.90
36752;DHT22;22718;49.494;7.036;2023-03-20T03:48:59;9.00;99.90
36752;DHT22;22718;49.494;7.036;2023-03-20T03:51:28;9.00;99.90
36752;DHT22;22718;49.494;7.036;2023-03-20T03:54:23;9.00;99.90
36752;DHT22;22718;49.494;7.036;2023-03-20T03:59:23;9.00;99.90
36752;DHT22;22718;49.494;7.036;2023-03-20T04:01:51;9.10;99.90
36752;DHT22;22718;49.494;7.036;2023-03-20T04:04:18;9.00;99.90
36752;DHT22;22718;49.494;7.036;2023-03-20T04:06:45;9.00;99.90
36752;DHT22;22718;49.494;7.036;2023-03-20T04:09:16;9.10;99.90
36752;DHT22;22718;49.494;7.036;2023-03-20T04:11:43;9.10;99.90
36752;DHT22;22718;49.494;7.036;2023-03-20T04:14:11;9.10;99.90
36752;DHT22;22718;49.494;7.036;2023-03-20T04:16:37;9.10;99.90
36752;DHT22;22718;49.494;7.036;2023-03-20T04:19:03;9.10;99.90
36752;DHT22;22718;49.494;7.036;2023-03-20T04:21:28;9.10;99.90
36752;DHT22;22718;49.494;7.036;2023-03-20T04:23:58;9.10;99.90
36752;DHT22;22718;49.494;7.036;2023-03-20T04:26:26;9.10;99.90
36752;DHT22;22718;49.494;7.036;2023-03-20T04:28:52;9.10;99.90
36752;DHT22;22718;49.494;7.036;2023-03-20T04:31:17;9.10;99.90
36752;DHT22;22718;49.494;7.036;2023-03-20T04:33:43;9.10;99.90
36752;DHT22;22718;49.494;7.036;2023-03-20T04:36:09;9.10;99.90
36752;DHT22;22718;49.494;7.036;2023-03-20T04:38:35;9.10;99.90
36752;DHT22;22718;49.494;7.036;2023-03-20T04:41:01;9.10;99.90
36752;DHT22;22718;49.494;7.036;2023-03-20T04:43:28;9.10;99.90
36752;DHT22;22718;49.494;7.036;2023-03-20T04:45:53;9.10;99.90
36752;DHT22;22718;49.494;7.036;2023-03-20T04:48:19;9.10;99.90
36752;DHT22;22718;49.494;7.036;2023-03-20T04:50:45;9.10;99.90
36752;DHT22;22718;49.494;7.036;2023-03-20T04:53:13;9.10;99.90
36752;DHT22;22718;49.494;7.036;2023-03-20T04:55:39;9.10;99.90
36752;DHT22;22718;49.494;7.036;2023-03-20T04:58:05;9.00;99.90
36752;DHT22;22718;49.494;7.036;2023-03-20T05:00:31;9.00;99.90
36752;DHT22;22718;49.494;7.036;2023-03-20T05:02:58;9.00;99.90
36752;DHT22;22718;49.494;7.036;2023-03-20T05:05:24;9.00;99.90
36752;DHT22;22718;49.494;7.036;2023-03-20T05:07:50;9.00;99.90
36752;DHT22;22718;49.494;7.036;2023-03-20T05:10:17;8.90;99.90
36752;DHT22;22718;49.494;7.036;2023-03-20T05:12:43;9.00;99.90
36752;DHT22;22718;49.494;7.036;2023-03-20T05:15:09;8.90;99.90
36752;DHT22;22718;49.494;7.036;2023-03-20T05:17:35;8.90;99.90
36752;DHT22;22718;49.494;7.036;2023-03-20T05:20:01;8.90;99.90
36752;DHT22;22718;49.494;7.036;2023-03-20T05:22:47;8.90;99.90
36752;DHT22;22718;49.494;7.036;2023-03-20T05:25:12;8.90;99.90
36752;DHT22;22718;49.494;7.036;2023-03-20T05:27:38;8.80;99.90
36752;DHT22;22718;49.494;7.036;2023-03-20T05:30:04;8.80;99.90
36752;DHT22;22718;49.494;7.036;2023-03-20T05:32:30;8.80;99.90
36752;DHT22;22718;49.494;7.036;2023-03-20T05:34:55;8.80;99.90
36752;DHT22;22718;49.494;7.036;2023-03-20T05:37:21;8.80;99.90
36752;DHT22;22718;49.494;7.036;2023-03-20T05:39:47;8.80;99.90
36752;DHT22;22718;49.494;7.036;2023-03-20T05:42:12;8.80;99.90
36752;DHT22;22718;49.494;7.036;2023-03-20T05:44:38;8.80;99.90
36752;DHT22;22718;49.494;7.036;2023-03-20T05:47:04;8.80;99.90
36752;DHT22;22718;49.494;7.036;2023-03-20T05:49:29;8.90;99.90
36752;DHT22;22718;49.494;7.036;2023-03-20T05:51:55;8.80;99.90
36752;DHT22;22718;49.494;7.036;2023-03-20T05:54:21;8.80;99.90
36752;DHT22;22718;49.494;7.036;2023-03-20T05:56:48;8.80;99.90
36752;DHT22;22718;49.494;7.036;2023-03-20T05:59:13;8.80;99.90
36752;DHT22;22718;49.494;7.036;2023-03-20T06:04:21;8.70;99.90
36752;DHT22;22718;49.494;7.036;2023-03-20T06:06:49;8.70;99.90
36752;DHT22;22718;49.494;7.036;2023-03-20T06:09:15;8.70;99.90
36752;DHT22;22718;49.494;7.036;2023-03-20T06:11:41;8.70;99.90
36752;DHT22;22718;49.494;7.036;2023-03-20T06:14:07;8.70;99.90
36752;DHT22;22718;49.494;7.036;2023-03-20T06:16:32;8.60;99.90
36752;DHT22;22718;49.494;7.036;2023-03-20T06:18:58;8.70;99.90
36752;DHT22;22718;49.494;7.036;2023-03-20T06:21:24;8.70;99.90
36752;DHT22;22718;49.494;7.036;2023-03-20T06:23:54;8.70;99.90
36752;DHT22;22718;49.494;7.036;2023-03-20T06:26:24;8.60;99.90
36752;DHT22;22718;49.494;7.036;2023-03-20T06:28:51;8.70;99.90
36752;DHT22;22718;49.494;7.036;2023-03-20T06:31:18;8.70;99.90
36752;DHT22;22718;49.494;7.036;2023-03-20T06:33:44;8.70;99.90
36752;DHT22;22718;49.494;7.036;2023-03-20T06:36:10;8.80;99.90
36752;DHT22;22718;49.494;7.036;2023-03-20T06:38:36;8.80;99.90
36752;DHT22;22718;49.494;7.036;2023-03-20T06:41:02;8.80;99.90
36752;DHT22;22718;49.494;7.036;2023-03-20T06:43:28;8.80;99.90
36752;DHT22;22718;49.494;7.036;2023-03-20T06:45:54;8.80;99.90
36752;DHT22;22718;49.494;7.036;2023-03-20T06:48:19;8.90;99.90
36752;DHT22;22718;49.494;7.036;2023-03-20T06:50:47;9.00;99.90
36752;DHT22;22718;49.494;7.036;2023-03-20T06:53:13;9.00;99.90
36752;DHT22;22718;49.494;7.036;2023-03-20T06:55:39;9.20;99.90
36752;DHT22;22718;49.494;7.036;2023-03-20T06:58:05;9.40;99.90
36752;DHT22;22718;49.494;7.036;2023-03-20T07:00:31;9.60;99.90
36752;DHT22;22718;49.494;7.036;2023-03-20T07:02:58;9.70;99.90
36752;DHT22;22718;49.494;7.036;2023-03-20T07:05:24;10.00;99.90
36752;DHT22;22718;49.494;7.036;2023-03-20T07:07:50;10.20;99.90
36752;DHT22;22718;49.494;7.036;2023-03-20T07:10:16;10.50;99.90
36752;DHT22;22718;49.494;7.036;2023-03-20T07:12:42;10.60;99.90
36752;DHT22;22718;49.494;7.036;2023-03-20T07:15:10;11.00;99.90
36752;DHT22;22718;49.494;7.036;2023-03-20T07:17:36;10.90;99.90
36752;DHT22;22718;49.494;7.036;2023-03-20T07:20:03;10.80;99.90
36752;DHT22;22718;49.494;7.036;2023-03-20T07:22:30;10.80;99.90
36752;DHT22;22718;49.494;7.036;2023-03-20T07:24:56;10.70;99.90
36752;DHT22;22718;49.494;7.036;2023-03-20T07:27:22;10.60;99.90
36752;DHT22;22718;49.494;7.036;2023-03-20T07:29:54;10.50;99.90
36752;DHT22;22718;49.494;7.036;2023-03-20T07:32:20;10.50;99.90
36752;DHT22;22718;49.494;7.036;2023-03-20T07:34:46;10.50;99.90
36752;DHT22;22718;49.494;7.036;2023-03-20T07:37:12;10.60;99.90
36752;DHT22;22718;49.494;7.036;2023-03-20T07:39:44;10.70;99.90
36752;DHT22;22718;49.494;7.036;2023-03-20T07:42:10;10.70;99.90
36752;DHT22;22718;49.494;7.036;2023-03-20T07:44:38;10.80;99.90
36752;DHT22;22718;49.494;7.036;2023-03-20T07:47:04;10.80;99.90
36752;DHT22;22718;49.494;7.036;2023-03-20T07:49:31;10.80;99.90
36752;DHT22;22718;49.494;7.036;2023-03-20T07:52:00;10.90;99.90
36752;DHT22;22718;49.494;7.036;2023-03-20T07:54:26;11.00;99.90
36752;DHT22;22718;49.494;7.036;2023-03-20T07:56:56;11.10;99.90
36752;DHT22;22718;49.494;7.036;2023-03-20T07:59:21;11.40;99.90
36752;DHT22;22718;49.494;7.036;2023-03-20T08:01:53;11.60;99.90
36752;DHT22;22718;49.494;7.036;2023-03-20T08:04:21;11.90;99.90
36752;DHT22;22718;49.494;7.036;2023-03-20T08:06:48;12.30;99.90
36752;DHT22;22718;49.494;7.036;2023-03-20T08:09:14;12.50;99.90
36752;DHT22;22718;49.494;7.036;2023-03-20T08:11:40;12.80;99.90
36752;DHT22;22718;49.494;7.036;2023-03-20T08:14:06;12.80;99.90
36752;DHT22;22718;49.494;7.036;2023-03-20T08:16:32;12.80;99.90
36752;DHT22;22718;49.494;7.036;2023-03-20T08:19:01;12.70;99.90
36752;DHT22;22718;49.494;7.036;2023-03-20T08:21:28;12.60;99.90
36752;DHT22;22718;49.494;7.036;2023-03-20T08:23:54;12.40;99.90
36752;DHT22;22718;49.494;7.036;2023-03-20T08:26:20;12.40;99.90
36752;DHT22;22718;49.494;7.036;2023-03-20T08:28:46;12.40;99.90
36752;DHT22;22718;49.494;7.036;2023-03-20T08:31:12;12.50;99.90
36752;DHT22;22718;49.494;7.036;2023-03-20T08:33:44;12.80;99.90
36752;DHT22;22718;49.494;7.036;2023-03-20T08:36:10;13.20;99.90
36752;DHT22;22718;49.494;7.036;2023-03-20T08:38:42;13.30;99.90
36752;DHT22;22718;49.494;7.036;2023-03-20T08:41:07;13.00;99.90
36752;DHT22;22718;49.494;7.036;2023-03-20T08:43:33;12.70;99.90
36752;DHT22;22718;49.494;7.036;2023-03-20T08:45:59;12.50;99.90
36752;DHT22;22718;49.494;7.036;2023-03-20T08:48:24;12.50;99.90
36752;DHT22;22718;49.494;7.036;2023-03-20T08:50:50;12.50;99.90
36752;DHT22;22718;49.494;7.036;2023-03-20T08:53:16;12.40;99.90
36752;DHT22;22718;49.494;7.036;2023-03-20T08:55:47;12.20;99.90
36752;DHT22;22718;49.494;7.036;2023-03-20T08:58:13;12.10;99.90
36752;DHT22;22718;49.494;7.036;2023-03-20T09:00:39;12.10;99.90
36752;DHT22;22718;49.494;7.036;2023-03-20T09:03:06;12.30;99.90
36752;DHT22;22718;49.494;7.036;2023-03-20T09:05:35;12.50;99.90
36752;DHT22;22718;49.494;7.036;2023-03-20T09:08:01;12.70;99.90
36752;DHT22;22718;49.494;7.036;2023-03-20T09:10:29;12.90;99.90
36752;DHT22;22718;49.494;7.036;2023-03-20T09:12:55;13.00;99.90
36752;DHT22;22718;49.494;7.036;2023-03-20T09:15:23;13.00;99.90
36752;DHT22;22718;49.494;7.036;2023-03-20T09:17:52;13.00;99.90
36752;DHT22;22718;49.494;7.036;2023-03-20T09:20:18;12.90;99.90
36752;DHT22;22718;49.494;7.036;2023-03-20T09:22:44;12.70;99.90
36752;DHT22;22718;49.494;7.036;2023-03-20T09:25:16;12.80;99.90
36752;DHT22;22718;49.494;7.036;2023-03-20T09:27:44;12.80;99.90
36752;DHT22;22718;49.494;7.036;2023-03-20T09:30:11;13.10;99.90
36752;DHT22;22718;49.494;7.036;2023-03-20T09:32:37;13.10;99.90
36752;DHT22;22718;49.494;7.036;2023-03-20T09:35:04;13.50;99.90
36752;DHT22;22718;49.494;7.036;2023-03-20T09:37:34;13.50;99.90
36752;DHT22;22718;49.494;7.036;2023-03-20T09:40:00;13.80;99.90
36752;DHT22;22718;49.494;7.036;2023-03-20T09:42:49;13.80;99.90
36752;DHT22;22718;49.494;7.036;2023-03-20T09:48:14;14.10;99.90
36752;DHT22;22718;49.494;7.036;2023-03-20T09:51:28;14.30;99.90
36752;DHT22;22718;49.494;7.036;2023-03-20T09:53:39;14.30;99.90
36752;DHT22;22718;49.494;7.036;2023-03-20T09:56:12;14.10;99.90
36752;DHT22;22718;49.494;7.036;2023-03-20T09:58:39;14.00;99.90
36752;DHT22;22718;49.494;7.036;2023-03-20T10:01:12;13.80;99.90
36752;DHT22;22718;49.494;7.036;2023-03-20T10:06:14;13.50;99.90
36752;DHT22;22718;49.494;7.036;2023-03-20T10:08:41;13.50;99.90
36752;DHT22;22718;49.494;7.036;2023-03-20T10:13:58;13.30;99.90
36752;DHT22;22718;49.494;7.036;2023-03-20T10:19:41;13.30;99.90
36752;DHT22;22718;49.494;7.036;2023-03-20T10:22:19;13.40;99.90
36752;DHT22;22718;49.494;7.036;2023-03-20T10:25:27;13.60;99.90
36752;DHT22;22718;49.494;7.036;2023-03-20T10:30:58;13.30;99.90
36752;DHT22;22718;49.494;7.036;2023-03-20T10:42:35;13.60;99.90
36752;DHT22;22718;49.494;7.036;2023-03-20T10:47:39;13.90;99.90
36752;DHT22;22718;49.494;7.036;2023-03-20T10:50:15;14.00;99.90
36752;DHT22;22718;49.494;7.036;2023-03-20T10:52:43;13.90;99.90
36752;DHT22;22718;49.494;7.036;2023-03-20T10:55:22;14.00;99.90
36752;DHT22;22718;49.494;7.036;2023-03-20T10:58:17;13.90;99.90
36752;DHT22;22718;49.494;7.036;2023-03-20T11:00:47;13.80;99.90
36752;DHT22;22718;49.494;7.036;2023-03-20T11:03:21;13.80;99.90
36752;DHT22;22718;49.494;7.036;2023-03-20T11:05:53;13.80;99.90
36752;DHT22;22718;49.494;7.036;2023-03-20T11:08:23;13.80;99.90
36752;DHT22;22718;49.494;7.036;2023-03-20T11:11:00;13.80;99.90
36752;DHT22;22718;49.494;7.036;2023-03-20T11:15:53;14.50;99.90
36752;DHT22;22718;49.494;7.036;2023-03-20T11:18:19;14.60;99.90
36752;DHT22;22718;49.494;7.036;2023-03-20T11:20:51;14.40;99.90
36752;DHT22;22718;49.494;7.036;2023-03-20T11:23:23;14.60;99.90
36752;DHT22;22718;49.494;7.036;2023-03-20T11:26:05;14.50;99.90
36752;DHT22;22718;49.494;7.036;2023-03-20T11:28:37;14.50;99.90
36752;DHT22;22718;49.494;7.036;2023-03-20T11:36:30;14.30;99.90
36752;DHT22;22718;49.494;7.036;2023-03-20T11:39:13;14.30;99.90
36752;DHT22;22718;49.494;7.036;2023-03-20T11:41:49;14.40;99.90
36752;DHT22;22718;49.494;7.036;2023-03-20T11:44:25;14.30;99.90
36752;DHT22;22718;49.494;7.036;2023-03-20T11:47:01;14.10;99.90
36752;DHT22;22718;49.494;7.036;2023-03-20T11:49:32;14.30;99.90
36752;DHT22;22718;49.494;7.036;2023-03-20T11:59:40;14.50;99.90
36752;DHT22;22718;49.494;7.036;2023-03-20T12:04:44;14.20;99.90
36752;DHT22;22718;49.494;7.036;2023-03-20T12:07:32;14.30;99.90
36752;DHT22;22718;49.494;7.036;2023-03-20T12:10:11;14.30;99.90
36752;DHT22;22718;49.494;7.036;2023-03-20T12:12:53;14.20;99.90
36752;DHT22;22718;49.494;7.036;2023-03-20T12:15:39;13.80;99.90
36752;DHT22;22718;49.494;7.036;2023-03-20T12:21:04;13.80;99.90
36752;DHT22;22718;49.494;7.036;2023-03-20T12:24:01;13.90;99.90
36752;DHT22;22718;49.494;7.036;2023-03-20T12:26:53;14.00;99.90
36752;DHT22;22718;49.494;7.036;2023-03-20T12:34:42;13.70;99.90
36752;DHT22;22718;49.494;7.036;2023-03-20T12:37:12;13.60;99.90
36752;DHT22;22718;49.494;7.036;2023-03-20T12:39:54;13.40;99.90
36752;DHT22;22718;49.494;7.036;2023-03-20T12:42:38;13.40;99.90
36752;DHT22;22718;49.494;7.036;2023-03-20T12:45:37;13.60;99.90
36752;DHT22;22718;49.494;7.036;2023-03-20T12:48:23;13.50;99.90
36752;DHT22;22718;49.494;7.036;2023-03-20T12:55:01;13.50;99.90
36752;DHT22;22718;49.494;7.036;2023-03-20T13:00:23;13.40;99.90
36752;DHT22;22718;49.494;7.036;2023-03-20T13:08:37;13.30;99.90
36752;DHT22;22718;49.494;7.036;2023-03-20T13:16:27;13.10;99.90
36752;DHT22;22718;49.494;7.036;2023-03-20T13:19:05;13.00;99.90
36752;DHT22;22718;49.494;7.036;2023-03-20T13:21:39;12.90;99.90
36752;DHT22;22718;49.494;7.036;2023-03-20T13:26:44;13.20;99.90
36752;DHT22;22718;49.494;7.036;2023-03-20T13:29:32;13.20;99.90
36752;DHT22;22718;49.494;7.036;2023-03-20T13:40:24;13.40;99.90
36752;DHT22;22718;49.494;7.036;2023-03-20T14:04:43;13.30;99.90
36752;DHT22;22718;49.494;7.036;2023-03-20T14:07:29;13.20;99.90
36752;DHT22;22718;49.494;7.036;2023-03-20T14:09:55;13.20;99.90
36752;DHT22;22718;49.494;7.036;2023-03-20T14:12:25;13.10;99.90
36752;DHT22;22718;49.494;7.036;2023-03-20T14:14:55;13.00;99.90
36752;DHT22;22718;49.494;7.036;2023-03-20T14:17:27;13.00;99.90
36752;DHT22;22718;49.494;7.036;2023-03-20T14:19:54;13.00;99.90
36752;DHT22;22718;49.494;7.036;2023-03-20T14:22:34;13.00;99.90
36752;DHT22;22718;49.494;7.036;2023-03-20T14:25:05;13.20;99.90
36752;DHT22;22718;49.494;7.036;2023-03-20T14:27:55;13.30;99.90
36752;DHT22;22718;49.494;7.036;2023-03-20T14:32:59;13.20;99.90
36752;DHT22;22718;49.494;7.036;2023-03-20T14:35:28;13.20;99.90
36752;DHT22;22718;49.494;7.036;2023-03-20T14:40:32;12.90;99.90
36752;DHT22;22718;49.494;7.036;2023-03-20T14:45:51;12.60;99.90
36752;DHT22;22718;49.494;7.036;2023-03-20T14:48:27;12.60;99.90
36752;DHT22;22718;49.494;7.036;2023-03-20T14:56:46;12.50;99.90
36752;DHT22;22718;49.494;7.036;2023-03-20T14:59:13;12.60;99.90
36752;DHT22;22718;49.494;7.036;2023-03-20T15:01:45;12.60;99.90
36752;DHT22;22718;49.494;7.036;2023-03-20T15:04:36;12.80;99.90
36752;DHT22;22718;49.494;7.036;2023-03-20T15:07:13;12.70;99.90
36752;DHT22;22718;49.494;7.036;2023-03-20T15:09:46;12.80;99.90
36752;DHT22;22718;49.494;7.036;2023-03-20T15:12:16;12.80;99.90
36752;DHT22;22718;49.494;7.036;2023-03-20T15:14:46;12.70;99.90
36752;DHT22;22718;49.494;7.036;2023-03-20T15:17:22;12.60;99.90
36752;DHT22;22718;49.494;7.036;2023-03-20T15:19:50;12.70;99.90
36752;DHT22;22718;49.494;7.036;2023-03-20T15:22:23;12.60;99.90
36752;DHT22;22718;49.494;7.036;2023-03-20T15:24:54;12.50;99.90
36752;DHT22;22718;49.494;7.036;2023-03-20T15:27:25;12.50;99.90
36752;DHT22;22718;49.494;7.036;2023-03-20T15:29:55;12.40;99.90
36752;DHT22;22718;49.494;7.036;2023-03-20T15:32:24;12.30;99.90
36752;DHT22;22718;49.494;7.036;2023-03-20T15:34:50;12.20;99.90
36752;DHT22;22718;49.494;7.036;2023-03-20T15:37:20;12.10;99.90
36752;DHT22;22718;49.494;7.036;2023-03-20T15:39:52;12.10;99.90
36752;DHT22;22718;49.494;7.036;2023-03-20T15:42:22;12.00;99.90
36752;DHT22;22718;49.494;7.036;2023-03-20T15:44:52;12.00;99.90
36752;DHT22;22718;49.494;7.036;2023-03-20T15:47:20;12.00;99.90
36752;DHT22;22718;49.494;7.036;2023-03-20T15:49:53;11.90;99.90
36752;DHT22;22718;49.494;7.036;2023-03-20T15:52:38;11.80;99.90
36752;DHT22;22718;49.494;7.036;2023-03-20T15:55:11;11.80;99.90
36752;DHT22;22718;49.494;7.036;2023-03-20T15:57:40;11.80;99.90
36752;DHT22;22718;49.494;7.036;2023-03-20T16:00:13;11.70;99.90
36752;DHT22;22718;49.494;7.036;2023-03-20T16:02:41;11.70;99.90
36752;DHT22;22718;49.494;7.036;2023-03-20T16:05:12;11.70;99.90
36752;DHT22;22718;49.494;7.036;2023-03-20T16:07:38;11.70;99.90
36752;DHT22;22718;49.494;7.036;2023-03-20T16:10:16;11.70;99.90
36752;DHT22;22718;49.494;7.036;2023-03-20T16:12:51;11.60;99.90
36752;DHT22;22718;49.494;7.036;2023-03-20T16:15:23;11.60;99.90
36752;DHT22;22718;49.494;7.036;2023-03-20T16:17:51;11.50;99.90
36752;DHT22;22718;49.494;7.036;2023-03-20T16:20:18;11.40;99.90
36752;DHT22;22718;49.494;7.036;2023-03-20T16:22:47;11.40;99.90
36752;DHT22;22718;49.494;7.036;2023-03-20T16:25:15;11.40;99.90
36752;DHT22;22718;49.494;7.036;2023-03-20T16:27:41;11.40;99.90
36752;DHT22;22718;49.494;7.036;2023-03-20T16:30:18;11.40;99.90
36752;DHT22;22718;49.494;7.036;2023-03-20T16:32:46;11.30;99.90
36752;DHT22;22718;49.494;7.036;2023-03-20T16:35:30;11.30;99.90
36752;DHT22;22718;49.494;7.036;2023-03-20T16:37:59;11.20;99.90
36752;DHT22;22718;49.494;7.036;2023-03-20T16:40:28;11.10;99.90
36752;DHT22;22718;49.494;7.036;2023-03-20T16:43:09;11.20;99.90
36752;DHT22;22718;49.494;7.036;2023-03-20T16:45:36;11.10;99.90
36752;DHT22;22718;49.494;7.036;2023-03-20T16:50:40;11.00;99.90
36752;DHT22;22718;49.494;7.036;2023-03-20T16:53:11;11.00;99.90
36752;DHT22;22718;49.494;7.036;2023-03-20T16:55:49;11.00;99.90
36752;DHT22;22718;49.494;7.036;2023-03-20T16:58:28;11.00;99.90
36752;DHT22;22718;49.494;7.036;2023-03-20T17:01:04;11.00;99.90
36752;DHT22;22718;49.494;7.036;2023-03-20T17:03:51;11.00;99.90
36752;DHT22;22718;49.494;7.036;2023-03-20T17:11:28;10.90;99.90
36752;DHT22;22718;49.494;7.036;2023-03-20T17:13:55;10.80;99.90
36752;DHT22;22718;49.494;7.036;2023-03-20T17:16:21;10.80;99.90
36752;DHT22;22718;49.494;7.036;2023-03-20T17:21:35;10.60;99.90
36752;DHT22;22718;49.494;7.036;2023-03-20T17:24:01;10.60;99.90
36752;DHT22;22718;49.494;7.036;2023-03-20T17:26:30;10.60;99.90
36752;DHT22;22718;49.494;7.036;2023-03-20T17:28:55;10.60;99.90
36752;DHT22;22718;49.494;7.036;2023-03-20T17:31:24;10.50;99.90
36752;DHT22;22718;49.494;7.036;2023-03-20T17:33:52;10.40;99.90
36752;DHT22;22718;49.494;7.036;2023-03-20T17:36:27;10.40;99.90
36752;DHT22;22718;49.494;7.036;2023-03-20T17:38:54;10.30;99.90
36752;DHT22;22718;49.494;7.036;2023-03-20T17:41:21;10.30;99.90
36752;DHT22;22718;49.494;7.036;2023-03-20T17:43:50;10.20;99.90
36752;DHT22;22718;49.494;7.036;2023-03-20T17:46:29;10.10;99.90
36752;DHT22;22718;49.494;7.036;2023-03-20T17:49:02;10.00;99.90
36752;DHT22;22718;49.494;7.036;2023-03-20T17:51:29;10.00;99.90
36752;DHT22;22718;49.494;7.036;2023-03-20T17:53:55;9.90;99.90
36752;DHT22;22718;49.494;7.036;2023-03-20T17:56:23;9.90;99.90
36752;DHT22;22718;49.494;7.036;2023-03-20T17:58:49;9.80;99.90
36752;DHT22;22718;49.494;7.036;2023-03-20T18:01:16;9.70;99.90
36752;DHT22;22718;49.494;7.036;2023-03-20T18:03:41;9.70;99.90
36752;DHT22;22718;49.494;7.036;2023-03-20T18:06:35;9.60;99.90
36752;DHT22;22718;49.494;7.036;2023-03-20T18:09:03;9.40;99.90
36752;DHT22;22718;49.494;7.036;2023-03-20T18:11:29;9.30;99.90
36752;DHT22;22718;49.494;7.036;2023-03-20T18:13:57;9.20;99.90
36752;DHT22;22718;49.494;7.036;2023-03-20T18:16:26;9.10;99.90
36752;DHT22;22718;49.494;7.036;2023-03-20T18:18:52;9.00;99.90
36752;DHT22;22718;49.494;7.036;2023-03-20T18:21:18;8.90;99.90
36752;DHT22;22718;49.494;7.036;2023-03-20T18:23:44;8.90;99.90
36752;DHT22;22718;49.494;7.036;2023-03-20T18:28:44;8.70;99.90
36752;DHT22;22718;49.494;7.036;2023-03-20T18:31:10;8.70;99.90
36752;DHT22;22718;49.494;7.036;2023-03-20T18:33:37;8.70;99.90
36752;DHT22;22718;49.494;7.036;2023-03-20T18:36:11;8.60;99.90
36752;DHT22;22718;49.494;7.036;2023-03-20T18:38:37;8.50;99.90
36752;DHT22;22718;49.494;7.036;2023-03-20T18:41:05;8.50;99.90
36752;DHT22;22718;49.494;7.036;2023-03-20T18:43:31;8.50;99.90
36752;DHT22;22718;49.494;7.036;2023-03-20T18:45:56;8.40;99.90
36752;DHT22;22718;49.494;7.036;2023-03-20T18:48:22;8.40;99.90
36752;DHT22;22718;49.494;7.036;2023-03-20T18:50:49;8.40;99.90
36752;DHT22;22718;49.494;7.036;2023-03-20T18:53:15;8.30;99.90